Time;durP1;ratioP1;P1;durP2;ratioP2;P2;SDS_P1;SDS_P2;PMS_P1;PMS_P2;Temp;Humidity;BMP_temperature;BMP_pressure;BME280_temperature;BME280_humidity;BME280_pressure;Samples;Min_cycle;Max_cycle;Signal;HPM_P1;HPM_P2
2023/03/21 00:02:18;;;;;;;0.80;0.80;;;;;;;11.81;100.00;100093.72;5092604;28;20206;-73
2023/03/21 00:04:45;;;;;;;0.60;0.60;;;;;;;11.86;100.00;100079.94;5092763;28;20214;-73
2023/03/21 00:07:12;;;;;;;0.77;0.77;;;;;;;11.80;100.00;100050.47;5092834;28;20190;-73
2023/03/21 00:09:39;;;;;;;1.00;1.00;;;;;;;11.87;100.00;100060.91;5092979;28;20222;-72
2023/03/21 00:12:09;;;;;;;1.38;1.38;;;;;;;12.00;100.00;100061.88;5093118;28;20200;-73
2023/03/21 00:14:36;;;;;;;0.70;0.70;;;;;;;12.00;100.00;100064.47;5041796;28;20241;-73
2023/03/21 00:17:04;;;;;;;0.88;0.88;;;;;;;11.91;100.00;100072.22;5092451;28;20199;-73
2023/03/21 00:19:30;;;;;;;0.60;0.60;;;;;;;11.90;100.00;100054.88;5092598;28;20194;-73
2023/03/21 00:22:00;;;;;;;0.60;0.60;;;;;;;11.94;100.00;100048.84;5092556;28;20209;-73
2023/03/21 00:24:27;;;;;;;0.80;0.80;;;;;;;12.06;100.00;100074.94;5093027;28;20266;-73
2023/03/21 00:26:55;;;;;;;0.55;0.55;;;;;;;12.10;100.00;100065.44;5092061;28;20287;-73
2023/03/21 00:29:23;;;;;;;0.60;0.60;;;;;;;12.09;100.00;100050.72;5092235;28;20703;-73
2023/03/21 00:31:50;;;;;;;3.13;1.40;;;;;;;11.80;100.00;100047.84;5036987;28;20222;-73
2023/03/21 00:34:16;;;;;;;1.55;1.55;;;;;;;11.59;100.00;100019.06;5085652;28;20198;-72
2023/03/21 00:36:43;;;;;;;0.80;0.80;;;;;;;11.76;100.00;100040.88;5092602;28;20201;-73
2023/03/21 00:39:10;;;;;;;0.70;0.70;;;;;;;11.72;100.00;100039.09;5075468;28;20672;-73
2023/03/21 00:41:37;;;;;;;0.90;0.90;;;;;;;11.75;100.00;100041.72;5092363;28;20689;-73
2023/03/21 00:44:04;;;;;;;0.60;0.60;;;;;;;11.75;100.00;100028.75;5091826;28;20202;-73
2023/03/21 00:46:34;;;;;;;0.80;0.80;;;;;;;11.89;100.00;100060.91;5092504;28;20190;-73
2023/03/21 00:49:01;;;;;;;0.70;0.70;;;;;;;11.80;100.00;100063.44;5091775;28;20646;-73
2023/03/21 00:51:29;;;;;;;0.95;0.95;;;;;;;11.66;100.00;100041.63;5092663;28;20205;-73
2023/03/21 00:53:58;;;;;;;0.80;0.80;;;;;;;11.45;100.00;100009.38;5091457;28;20201;-73
2023/03/21 00:56:25;;;;;;;0.70;0.70;;;;;;;11.65;100.00;100042.47;5092293;28;20197;-73
2023/03/21 00:58:52;;;;;;;0.70;0.70;;;;;;;11.54;100.00;100019.00;5091190;28;20221;-73
2023/03/21 01:01:18;;;;;;;0.80;0.80;;;;;;;11.20;100.00;99955.47;5091942;28;20195;-73
2023/03/21 01:03:49;;;;;;;0.90;0.90;;;;;;;11.53;100.00;100012.06;5091336;28;20220;-73
2023/03/21 01:06:19;;;;;;;0.60;0.60;;;;;;;11.63;100.00;100028.63;5092174;28;20236;-73
2023/03/21 01:08:48;;;;;;;0.70;0.70;;;;;;;11.61;100.00;100028.59;5091700;28;20218;-72
2023/03/21 01:11:17;;;;;;;0.70;0.70;;;;;;;11.58;100.00;100014.69;5092003;28;20206;-72
2023/03/21 01:13:44;;;;;;;0.85;0.85;;;;;;;11.54;100.00;100013.81;5090923;28;20630;-73
2023/03/21 01:16:11;;;;;;;0.90;0.90;;;;;;;11.49;100.00;99999.00;5083247;28;20209;-73
2023/03/21 01:18:40;;;;;;;0.70;0.70;;;;;;;11.58;100.00;100014.69;5091968;28;20202;-72
2023/03/21 01:21:11;;;;;;;0.90;0.90;;;;;;;11.62;100.00;100011.28;5091882;28;20206;-73
2023/03/21 01:23:40;;;;;;;1.25;1.25;;;;;;;11.46;100.00;99999.88;5091040;28;20201;-73
2023/03/21 01:26:07;;;;;;;0.60;0.60;;;;;;;11.63;100.00;100015.63;5091549;28;20198;-73
2023/03/21 01:28:35;;;;;;;0.60;0.60;;;;;;;11.71;100.00;100008.78;5090796;28;20202;-73
2023/03/21 01:31:04;;;;;;;0.80;0.80;;;;;;;11.75;100.00;100014.03;5090644;28;20198;-73
2023/03/21 01:33:32;;;;;;;0.63;0.63;;;;;;;11.71;100.00;100007.06;5091379;28;20221;-73
2023/03/21 01:35:59;;;;;;;0.70;0.70;;;;;;;11.73;100.00;100005.38;5090896;28;20189;-73
2023/03/21 01:38:28;;;;;;;0.70;0.70;;;;;;;11.74;100.00;100006.22;5086987;28;20685;-73
2023/03/21 01:40:55;;;;;;;0.60;0.60;;;;;;;11.70;100.00;100007.03;5091006;28;20213;-73
2023/03/21 01:43:27;;;;;;;1.20;1.20;;;;;;;11.72;100.00;100021.81;5090744;28;20199;-74
2023/03/21 01:46:31;;;;;;;0.65;0.65;;;;;;;11.61;100.00;100030.31;5091133;28;20202;-73
2023/03/21 01:49:01;;;;;;;0.80;0.80;;;;;;;11.44;100.00;99999.88;5091130;28;20284;-73
2023/03/21 01:51:31;;;;;;;0.60;0.60;;;;;;;11.54;100.00;100019.00;5090734;28;20260;-74
2023/03/21 01:54:00;;;;;;;0.70;0.70;;;;;;;11.49;100.00;100009.41;5090664;28;20654;-73
2023/03/21 01:56:31;;;;;;;0.70;0.70;;;;;;;11.47;100.00;100006.81;5056282;28;20259;-73
2023/03/21 01:59:05;;;;;;;0.60;0.60;;;;;;;11.46;100.00;99997.28;5090908;28;20226;-73
2023/03/21 02:01:33;;;;;;;0.70;0.70;;;;;;;11.29;100.00;99980.66;5090664;28;20197;-73
2023/03/21 02:04:03;;;;;;;0.90;0.90;;;;;;;11.16;100.00;99992.66;5090529;28;20221;-73
2023/03/21 02:06:36;;;;;;;0.90;0.90;;;;;;;11.21;100.00;99995.28;5091022;28;20695;-73
2023/03/21 02:09:09;;;;;;;0.70;0.70;;;;;;;11.09;100.00;99990.84;5090974;28;20194;-73
2023/03/21 02:11:38;;;;;;;0.90;0.90;;;;;;;11.01;100.00;99997.66;5056369;28;20558;-74
2023/03/21 02:14:05;;;;;;;0.60;0.60;;;;;;;11.02;100.00;99995.94;5090634;28;20202;-73
2023/03/21 02:16:46;;;;;;;0.70;0.70;;;;;;;11.13;100.00;99994.34;5090978;28;20221;-73
2023/03/21 02:19:44;;;;;;;0.70;0.70;;;;;;;11.19;100.00;99984.00;5051694;28;20669;-73
2023/03/21 02:22:56;;;;;;;0.80;0.80;;;;;;;11.20;100.00;99991.78;4997669;28;20204;-73
2023/03/21 02:25:56;;;;;;;0.70;0.70;;;;;;;11.20;100.00;99990.97;4969330;28;20194;-74
2023/03/21 02:28:28;;;;;;;0.80;0.80;;;;;;;11.22;100.00;99997.03;4874689;29;20753;-74
2023/03/21 02:31:25;;;;;;;0.70;0.70;;;;;;;11.26;100.00;99997.06;4875087;29;20627;-74
2023/03/21 02:34:23;;;;;;;0.63;0.63;;;;;;;11.22;100.00;99984.91;4800729;29;20261;-74
2023/03/21 02:37:10;;;;;;;1.15;1.15;;;;;;;11.33;100.00;100003.19;4801560;29;20220;-74
2023/03/21 02:39:49;;;;;;;0.88;0.88;;;;;;;11.19;100.00;99997.88;4718332;30;20203;-74
2023/03/21 02:42:21;;;;;;;0.80;0.80;;;;;;;11.26;100.00;99999.69;4712974;30;20207;-74
2023/03/21 02:44:56;;;;;;;0.90;0.90;;;;;;;11.30;100.00;100019.63;4713588;30;20303;-74
2023/03/21 02:47:27;;;;;;;0.63;0.63;;;;;;;11.24;100.00;100022.13;4712920;30;20219;-74
2023/03/21 02:49:57;;;;;;;0.70;0.70;;;;;;;10.97;100.00;100016.63;4714075;30;20228;-74
2023/03/21 02:52:29;;;;;;;0.70;0.70;;;;;;;10.96;100.00;100030.44;4723929;30;20211;-74
2023/03/21 02:54:58;;;;;;;0.90;0.90;;;;;;;10.96;100.00;100020.06;4717049;30;20200;-73
2023/03/21 02:57:25;;;;;;;0.90;0.90;;;;;;;11.05;100.00;100027.97;4716907;30;20211;-73
2023/03/21 02:59:52;;;;;;;0.60;0.60;;;;;;;11.04;100.00;100030.53;4729097;29;20231;-73
2023/03/21 03:02:26;;;;;;;0.90;0.90;;;;;;;10.89;100.00;100024.31;4832699;29;20207;-73
2023/03/21 03:04:54;;;;;;;0.70;0.70;;;;;;;10.86;100.00;100026.88;4859714;29;20207;-73
2023/03/21 03:07:40;;;;;;;0.70;0.70;;;;;;;10.84;100.00;100017.34;4881069;29;20208;-73
2023/03/21 03:10:24;;;;;;;0.70;0.70;;;;;;;10.90;100.00;100025.19;4937746;28;20730;-73
2023/03/21 03:12:59;;;;;;;0.70;0.70;;;;;;;10.75;100.00;99999.91;4992505;28;20620;-73
2023/03/21 03:15:37;;;;;;;0.70;0.70;;;;;;;11.04;100.00;100026.22;5005257;28;20800;-72
2023/03/21 03:18:12;;;;;;;0.60;0.60;;;;;;;11.04;100.00;100031.41;5093784;28;20194;-73
2023/03/21 03:20:49;;;;;;;0.93;0.93;;;;;;;11.00;100.00;100026.16;5094049;28;20213;-73
2023/03/21 03:23:27;;;;;;;0.65;0.65;;;;;;;10.76;100.00;100014.63;5093374;28;20247;-73
2023/03/21 03:25:58;;;;;;;0.70;0.70;;;;;;;10.81;100.00;100030.22;5093636;28;20198;-73
2023/03/21 03:28:30;;;;;;;0.90;0.90;;;;;;;10.81;100.00;100038.00;5093390;28;20206;-73
2023/03/21 03:30:59;;;;;;;0.77;0.77;;;;;;;10.81;100.00;100038.00;5093990;28;20226;-73
2023/03/21 03:33:28;;;;;;;0.90;0.90;;;;;;;10.20;100.00;99945.59;5093635;28;20205;-73
2023/03/21 03:35:57;;;;;;;0.70;0.70;;;;;;;10.65;100.00;100025.72;5093412;28;20208;-73
2023/03/21 03:38:27;;;;;;;0.90;0.90;;;;;;;10.57;100.00;100011.75;5093422;28;20635;-74
2023/03/21 03:40:58;;;;;;;0.68;0.68;;;;;;;10.62;100.00;100030.84;5093943;28;20210;-73
2023/03/21 03:43:32;;;;;;;0.80;0.80;;;;;;;10.72;100.00;100019.75;5093528;28;20201;-72
2023/03/21 03:46:05;;;;;;;0.60;0.60;;;;;;;10.84;100.00;100030.31;5093164;28;20201;-74
2023/03/21 03:48:38;;;;;;;1.13;1.13;;;;;;;10.85;100.00;100027.72;5093168;28;20202;-74
2023/03/21 03:51:10;;;;;;;1.00;1.00;;;;;;;10.87;100.00;100027.75;5093301;28;20599;-74
2023/03/21 03:53:42;;;;;;;0.70;0.70;;;;;;;10.36;100.00;99938.06;5058625;28;20201;-73
2023/03/21 03:56:11;;;;;;;0.60;0.60;;;;;;;10.04;100.00;99894.38;5093007;28;20198;-74
2023/03/21 03:58:40;;;;;;;0.63;0.63;;;;;;;10.86;100.00;100029.47;5092854;28;20281;-74
2023/03/21 04:01:07;;;;;;;1.05;1.05;;;;;;;10.70;100.00;99995.53;5093108;28;20300;-74
2023/03/21 04:03:37;;;;;;;0.75;0.75;;;;;;;10.84;100.00;100025.13;5040304;28;20194;-75
2023/03/21 04:06:05;;;;;;;1.00;1.00;;;;;;;10.65;100.00;100002.38;5089374;28;20566;-75
2023/03/21 04:08:31;;;;;;;0.98;0.98;;;;;;;10.61;100.00;100019.59;5092893;28;20198;-75
2023/03/21 04:11:01;;;;;;;0.60;0.60;;;;;;;10.65;100.00;100015.34;5092896;28;20218;-74
2023/03/21 04:13:28;;;;;;;0.93;0.90;;;;;;;10.53;100.00;100016.03;5092961;28;20202;-74
2023/03/21 04:15:55;;;;;;;2.28;2.17;;;;;;;10.70;100.00;100013.69;5092789;28;20194;-75
2023/03/21 04:18:23;;;;;;;0.80;0.80;;;;;;;10.73;100.00;100024.09;5091415;28;20263;-75
2023/03/21 04:20:51;;;;;;;0.70;0.70;;;;;;;10.64;100.00;100022.25;5092238;28;20202;-75
2023/03/21 04:23:19;;;;;;;0.70;0.70;;;;;;;10.68;100.00;100015.38;5073838;28;20198;-76
2023/03/21 04:25:46;;;;;;;0.70;0.70;;;;;;;10.62;100.00;99999.75;5078434;28;20206;-75
2023/03/21 04:28:14;;;;;;;0.90;0.90;;;;;;;10.70;100.00;100019.72;5093156;28;20649;-74
2023/03/21 04:30:41;;;;;;;0.98;0.98;;;;;;;10.36;100.00;99974.34;5092762;28;20232;-74
2023/03/21 04:33:07;;;;;;;0.70;0.70;;;;;;;10.28;100.00;99962.97;5092478;28;20689;-74
2023/03/21 04:35:35;;;;;;;0.68;0.68;;;;;;;10.23;100.00;99964.66;5092137;28;20194;-74
2023/03/21 04:38:02;;;;;;;0.80;0.80;;;;;;;10.50;100.00;99991.78;5072380;28;20214;-74
2023/03/21 04:40:29;;;;;;;1.10;1.10;;;;;;;10.45;100.00;100005.56;5089739;28;20289;-74
2023/03/21 04:42:56;;;;;;;1.73;1.60;;;;;;;10.33;100.00;99995.03;5091952;28;20205;-74
2023/03/21 04:45:24;;;;;;;0.90;0.90;;;;;;;10.56;100.00;100020.41;5091715;28;20226;-74
2023/03/21 04:47:51;;;;;;;0.80;0.80;;;;;;;10.70;100.00;100018.88;5091940;28;20190;-75
2023/03/21 04:50:18;;;;;;;1.27;1.27;;;;;;;10.58;100.00;100013.50;5091304;28;20218;-75
2023/03/21 04:52:44;;;;;;;0.70;0.70;;;;;;;10.75;100.00;100031.03;5092371;28;20190;-75
2023/03/21 04:55:11;;;;;;;0.90;0.90;;;;;;;10.73;100.00;100034.47;5091903;28;20203;-74
2023/03/21 04:57:38;;;;;;;0.70;0.70;;;;;;;10.82;100.00;100025.09;5091576;28;20527;-75
2023/03/21 05:00:09;;;;;;;0.70;0.70;;;;;;;10.83;100.00;100031.16;5092145;28;20226;-75
2023/03/21 05:02:38;;;;;;;0.80;0.80;;;;;;;10.70;100.00;100004.16;5092029;28;20694;-75
2023/03/21 05:05:09;;;;;;;0.80;0.80;;;;;;;10.86;100.00;100037.25;5091638;28;20202;-75
2023/03/21 05:07:37;;;;;;;0.80;0.80;;;;;;;10.80;100.00;100015.53;5091710;28;20203;-75
2023/03/21 05:10:05;;;;;;;0.85;0.85;;;;;;;10.97;100.00;100039.09;5091813;28;20225;-74
2023/03/21 05:12:32;;;;;;;0.70;0.70;;;;;;;10.92;100.00;100052.00;5092015;28;20206;-75
2023/03/21 05:14:58;;;;;;;1.27;1.27;;;;;;;10.89;100.00;100052.84;5091270;28;20194;-74
2023/03/21 05:17:27;;;;;;;0.93;0.93;;;;;;;10.98;100.00;100057.28;5091723;28;20198;-75
2023/03/21 05:19:56;;;;;;;0.60;0.60;;;;;;;10.91;100.00;100061.50;5089219;28;20255;-76
2023/03/21 05:22:25;;;;;;;0.80;0.80;;;;;;;10.66;100.00;99991.16;5032975;28;20311;-77
2023/03/21 05:24:54;;;;;;;0.68;0.68;;;;;;;11.16;100.00;100061.84;5084358;28;20210;-75
2023/03/21 05:27:35;;;;;;;2.35;2.25;;;;;;;11.35;100.00;100064.66;5091631;28;20193;-76
2023/03/21 05:30:04;;;;;;;0.60;0.60;;;;;;;11.39;100.00;100029.22;5088734;28;20597;-75
2023/03/21 05:32:31;;;;;;;0.70;0.70;;;;;;;11.73;100.00;100062.50;5081875;28;20210;-75
2023/03/21 05:35:00;;;;;;;0.63;0.63;;;;;;;11.70;100.00;100054.63;5090733;28;20194;-74
2023/03/21 05:37:27;;;;;;;0.85;0.85;;;;;;;11.84;100.00;100055.66;5033786;28;20207;-76
2023/03/21 05:39:54;;;;;;;0.70;0.70;;;;;;;11.99;100.00;100054.06;5091348;28;20194;-76
2023/03/21 05:42:21;;;;;;;0.80;0.80;;;;;;;12.13;100.00;100068.09;5091369;28;20206;-74
2023/03/21 05:44:48;;;;;;;0.77;0.77;;;;;;;12.01;100.00;100058.44;5090641;28;20198;-74
2023/03/21 05:47:16;;;;;;;0.90;0.90;;;;;;;11.83;100.00;100058.28;5091155;28;20201;-73
2023/03/21 05:49:43;;;;;;;1.38;1.38;;;;;;;11.52;100.00;100059.66;5090917;28;20201;-73
2023/03/21 05:52:12;;;;;;;0.70;0.70;;;;;;;11.50;100.00;100047.50;5090388;28;20229;-73
2023/03/21 05:54:38;;;;;;;1.20;1.20;;;;;;;11.53;100.00;100083.88;5085930;28;20206;-74
2023/03/21 05:57:06;;;;;;;0.52;0.52;;;;;;;11.50;100.00;100068.28;5091137;28;20206;-74
2023/03/21 05:59:32;;;;;;;1.85;1.75;;;;;;;11.16;100.00;100083.47;5090598;28;20238;-75
2023/03/21 06:01:59;;;;;;;0.80;0.80;;;;;;;10.81;100.00;100050.97;5090879;28;20213;-75
2023/03/21 06:04:26;;;;;;;1.05;1.05;;;;;;;11.08;100.00;100090.28;5089873;28;20202;-75
2023/03/21 06:06:53;;;;;;;0.70;0.70;;;;;;;11.34;100.00;100088.00;5090785;28;20217;-76
2023/03/21 06:09:22;;;;;;;0.70;0.70;;;;;;;11.55;100.00;100095.16;5054560;28;20203;-78
2023/03/21 06:11:51;;;;;;;1.55;1.30;;;;;;;11.56;100.00;100076.16;5090392;28;20289;-76
2023/03/21 06:14:19;;;;;;;0.80;0.80;;;;;;;11.80;100.00;100079.03;5090913;28;20691;-77
2023/03/21 06:16:46;;;;;;;3.70;2.35;;;;;;;11.82;100.00;100098.09;5022533;28;20202;-75
2023/03/21 06:19:13;;;;;;;0.65;0.65;;;;;;;11.70;100.00;100061.59;5087861;28;20198;-82
2023/03/21 06:21:39;;;;;;;2.55;2.35;;;;;;;12.11;100.00;100086.25;5090782;28;20209;-77
2023/03/21 06:24:06;;;;;;;0.70;0.70;;;;;;;12.27;100.00;100077.69;5039059;28;20194;-75
2023/03/21 06:26:35;;;;;;;0.82;0.82;;;;;;;12.33;100.00;100092.50;5090388;28;20669;-75
2023/03/21 06:29:01;;;;;;;1.50;1.50;;;;;;;12.56;100.00;100087.44;5080646;28;20202;-77
2023/03/21 06:31:28;;;;;;;0.70;0.70;;;;;;;12.73;100.00;100067.66;5091440;28;20222;-77
2023/03/21 06:33:55;;;;;;;0.65;0.65;;;;;;;12.74;100.00;100032.94;5059325;28;20202;-75
2023/03/21 06:36:22;;;;;;;0.90;0.90;;;;;;;12.98;100.00;100053.91;5094913;28;20217;-76
2023/03/21 06:38:49;;;;;;;0.80;0.80;;;;;;;13.00;100.00;100018.34;5094858;28;20611;-76
2023/03/21 06:41:16;;;;;;;0.80;0.80;;;;;;;13.51;100.00;100072.38;5095107;28;20201;-73
2023/03/21 06:43:44;;;;;;;1.00;1.00;;;;;;;13.41;100.00;100070.59;5058988;28;20230;-76
2023/03/21 06:46:11;;;;;;;0.70;0.70;;;;;;;13.39;100.00;100067.97;5094534;28;20198;-76
2023/03/21 06:48:43;;;;;;;0.75;0.75;;;;;;;13.28;100.00;100048.84;5058874;28;20205;-74
2023/03/21 06:51:10;;;;;;;0.80;0.80;;;;;;;13.41;100.00;100068.84;5094151;28;20646;-75
2023/03/21 06:53:37;;;;;;;0.98;0.98;;;;;;;13.30;100.00;100020.22;5094015;28;20556;-76
2023/03/21 06:56:05;;;;;;;1.75;1.10;;;;;;;13.76;100.00;100066.34;5094128;28;20194;-77
2023/03/21 06:58:32;;;;;;;0.77;0.77;;;;;;;14.04;98.79;100084.63;5042375;28;20234;-79
2023/03/21 07:01:01;;;;;;;0.63;0.63;;;;;;;13.95;96.81;100053.34;5094390;28;20295;-78
2023/03/21 07:03:28;;;;;;;0.80;0.80;;;;;;;13.68;96.77;100062.84;5094065;28;20280;-79
2023/03/21 07:05:55;;;;;;;0.60;0.60;;;;;;;13.40;98.33;100076.66;5093985;28;20197;-76
2023/03/21 07:08:24;;;;;;;0.80;0.80;;;;;;;13.40;99.78;100093.16;5088209;28;20198;-75
2023/03/21 07:10:55;;;;;;;0.80;0.80;;;;;;;13.42;100.00;100098.38;5085545;28;20229;-75
2023/03/21 07:13:21;;;;;;;0.70;0.70;;;;;;;13.52;100.00;100094.94;5093815;28;20202;-76
2023/03/21 07:15:48;;;;;;;0.70;0.70;;;;;;;13.70;99.88;100065.44;5093564;28;20205;-80
2023/03/21 07:18:16;;;;;;;0.70;0.70;;;;;;;14.02;97.25;100092.44;5093535;28;20198;-74
2023/03/21 07:20:49;;;;;;;0.70;0.70;;;;;;;14.10;95.02;100069.84;5085874;28;20191;-76
2023/03/21 07:23:16;;;;;;;1.55;1.45;;;;;;;14.09;94.44;100088.13;5088101;28;20293;-76
2023/03/21 07:25:43;;;;;;;0.60;0.60;;;;;;;13.91;93.57;100094.19;5093863;28;20201;-74
2023/03/21 07:28:10;;;;;;;0.93;0.93;;;;;;;13.76;96.34;100094.16;5093781;28;20205;-74
2023/03/21 07:30:37;;;;;;;0.73;0.73;;;;;;;13.72;95.96;100063.72;5093577;28;20232;-75
2023/03/21 07:33:03;;;;;;;0.93;0.93;;;;;;;13.79;95.23;100094.16;5093582;28;20584;-76
2023/03/21 07:35:32;;;;;;;1.15;1.15;;;;;;;14.10;96.63;100079.41;5058404;28;20194;-75
2023/03/21 07:37:59;;;;;;;0.93;0.93;;;;;;;14.22;94.56;100080.31;5093586;28;20214;-75
2023/03/21 07:40:26;;;;;;;0.80;0.80;;;;;;;14.29;92.50;100081.16;5057672;28;20194;-75
2023/03/21 07:42:53;;;;;;;5.57;1.52;;;;;;;14.44;90.91;100054.25;5093154;28;20579;-75
2023/03/21 07:45:22;;;;;;;0.90;0.90;;;;;;;14.00;93.79;100068.13;5093470;28;20221;-75
2023/03/21 07:47:49;;;;;;;0.82;0.82;;;;;;;14.13;93.68;100082.88;5093251;28;20220;-75
2023/03/21 07:50:16;;;;;;;0.80;0.80;;;;;;;14.26;93.60;100071.63;5093664;28;20194;-74
2023/03/21 07:52:46;;;;;;;0.70;0.70;;;;;;;14.36;94.48;100073.38;5093270;28;20234;-76
2023/03/21 07:55:13;;;;;;;0.80;0.80;;;;;;;14.63;90.99;100074.19;5093265;28;20201;-74
2023/03/21 07:57:40;;;;;;;1.20;1.02;;;;;;;14.72;91.20;100077.69;5041489;28;20206;-74
2023/03/21 08:00:08;;;;;;;0.70;0.70;;;;;;;14.89;89.87;100090.69;5093056;28;20708;-74
2023/03/21 08:02:35;;;;;;;0.80;0.80;;;;;;;15.23;87.52;100081.88;5093363;28;20263;-75
2023/03/21 08:05:02;;;;;;;0.90;0.90;;;;;;;14.89;87.90;100070.69;5093203;28;20202;-75
2023/03/21 08:07:29;;;;;;;0.70;0.70;;;;;;;15.11;86.56;100087.16;5092965;28;20201;-74
2023/03/21 08:09:58;;;;;;;0.70;0.70;;;;;;;15.48;84.68;100089.63;5092940;28;20190;-74
2023/03/21 08:12:25;;;;;;;0.60;0.60;;;;;;;15.39;83.88;100088.78;5092593;28;20218;-74
2023/03/21 08:14:52;;;;;;;1.25;1.25;;;;;;;15.44;84.32;100072.22;5092959;28;20668;-75
2023/03/21 08:17:18;;;;;;;6.75;2.95;;;;;;;15.66;83.21;100093.03;5092915;28;20221;-75
2023/03/21 08:19:45;;;;;;;1.40;1.40;;;;;;;15.68;81.86;100067.75;5093026;28;20198;-75
2023/03/21 08:22:12;;;;;;;3.40;0.90;;;;;;;15.80;81.80;100085.13;5093068;28;20589;-75
2023/03/21 08:24:39;;;;;;;0.80;0.80;;;;;;;15.91;81.75;100098.97;5092771;28;20198;-75
2023/03/21 08:27:07;;;;;;;0.60;0.60;;;;;;;16.13;80.89;100100.56;5092646;28;20206;-75
2023/03/21 08:29:39;;;;;;;0.75;0.75;;;;;;;16.09;80.75;100104.09;5092563;28;20198;-75
2023/03/21 08:32:06;;;;;;;0.70;0.70;;;;;;;16.38;81.18;100103.88;5092501;28;20617;-75
2023/03/21 08:34:33;;;;;;;0.60;0.60;;;;;;;16.58;78.46;100095.88;5092731;28;20256;-75
2023/03/21 08:37:01;;;;;;;0.95;0.95;;;;;;;16.78;77.02;100079.09;5092472;28;20198;-75
2023/03/21 08:39:28;;;;;;;0.60;0.60;;;;;;;17.04;77.03;100105.03;5092508;28;20216;-75
2023/03/21 08:41:55;;;;;;;0.70;0.70;;;;;;;17.52;73.95;100092.19;5092448;28;20219;-75
2023/03/21 08:44:24;;;;;;;0.70;0.70;;;;;;;17.10;72.24;100070.00;5092597;28;20198;-75
2023/03/21 08:46:51;;;;;;;1.17;0.77;;;;;;;16.94;74.89;100100.78;5092292;28;20206;-74
2023/03/21 08:49:18;;;;;;;0.70;0.70;;;;;;;16.93;76.70;100106.88;5092265;28;20198;-74
2023/03/21 08:51:45;;;;;;;0.70;0.70;;;;;;;17.11;75.24;100117.16;5091979;28;20229;-74
2023/03/21 08:54:19;;;;;;;0.93;0.93;;;;;;;17.13;73.32;100094.44;5090987;28;20198;-75
2023/03/21 08:56:46;;;;;;;0.80;0.80;;;;;;;17.48;70.97;100127.22;5092312;28;20233;-75
2023/03/21 08:59:13;;;;;;;1.13;1.13;;;;;;;17.33;69.85;100102.06;5092175;28;20248;-75
2023/03/21 09:01:41;;;;;;;0.80;0.80;;;;;;;17.27;69.52;100126.59;5056753;28;20198;-75
2023/03/21 09:04:09;;;;;;;1.67;1.67;;;;;;;16.79;73.99;100119.25;5092123;28;20198;-75
2023/03/21 09:06:36;;;;;;;0.70;0.70;;;;;;;17.54;71.75;100121.91;5091865;28;20194;-75
2023/03/21 09:09:04;;;;;;;0.68;0.68;;;;;;;17.47;70.31;100104.53;5091864;28;20205;-75
2023/03/21 09:11:31;;;;;;;0.80;0.80;;;;;;;17.22;67.21;100115.31;5091700;28;20669;-74
2023/03/21 09:13:58;;;;;;;0.68;0.68;;;;;;;16.88;69.00;100106.06;5056525;28;20201;-74
2023/03/21 09:16:25;;;;;;;0.65;0.65;;;;;;;16.99;68.56;100106.81;5039618;28;20205;-75
2023/03/21 09:18:54;;;;;;;0.80;0.80;;;;;;;16.92;69.18;100071.09;5091665;28;20198;-74
2023/03/21 09:21:22;;;;;;;0.70;0.70;;;;;;;17.26;67.40;100103.91;5091505;28;20202;-74
2023/03/21 09:23:51;;;;;;;0.60;0.60;;;;;;;17.41;65.80;100109.84;5091760;28;20587;-74
2023/03/21 09:26:19;;;;;;;0.60;0.60;;;;;;;17.52;67.30;100102.69;5056689;28;20202;-75
2023/03/21 09:28:46;;;;;;;0.75;0.75;;;;;;;17.47;67.30;100108.00;5091451;28;20194;-75
2023/03/21 09:31:15;;;;;;;0.70;0.70;;;;;;;17.59;66.85;100105.25;5091562;28;20657;-75
2023/03/21 09:33:42;;;;;;;0.80;0.80;;;;;;;17.79;66.61;100102.38;5091250;28;20195;-75
2023/03/21 09:36:12;;;;;;;0.70;0.70;;;;;;;17.81;65.21;100019.28;5056020;28;20198;-75
2023/03/21 09:38:41;;;;;;;0.60;0.60;;;;;;;18.43;64.47;100096.13;5091704;28;20201;-75
2023/03/21 09:41:21;;;;;;;0.60;0.60;;;;;;;18.69;63.10;100097.44;5091326;28;20255;-75
2023/03/21 09:43:56;;;;;;;0.60;0.60;;;;;;;18.36;62.48;100103.25;5056264;28;20673;-76
2023/03/21 09:46:31;;;;;;;1.75;1.00;;;;;;;18.09;63.60;100093.16;5091322;28;20193;-76
2023/03/21 09:49:01;;;;;;;0.70;0.70;;;;;;;17.84;63.42;100100.53;5091142;28;20197;-76
2023/03/21 09:51:35;;;;;;;0.60;0.60;;;;;;;17.91;64.52;100096.09;5091226;28;20280;-76
2023/03/21 09:54:07;;;;;;;0.70;0.70;;;;;;;18.23;63.94;100089.44;5091187;28;20259;-75
2023/03/21 09:56:37;;;;;;;0.70;0.70;;;;;;;18.19;64.25;100092.16;5091019;28;20293;-75
2023/03/21 09:59:07;;;;;;;0.70;0.70;;;;;;;17.91;64.82;100075.94;5055673;28;20238;-76
2023/03/21 10:01:40;;;;;;;0.60;0.60;;;;;;;18.02;65.07;100088.91;5088798;28;20205;-80
2023/03/21 10:04:12;;;;;;;0.80;0.80;;;;;;;17.79;64.80;100065.66;5089805;28;20688;-79
2023/03/21 10:06:42;;;;;;;1.08;1.00;;;;;;;17.70;65.80;100097.22;5091064;28;20198;-79
2023/03/21 10:09:15;;;;;;;0.88;0.88;;;;;;;17.44;67.30;100073.09;5090464;28;20202;-79
2023/03/21 10:11:45;;;;;;;0.70;0.70;;;;;;;17.24;68.94;100082.06;5076457;28;20221;-79
2023/03/21 10:14:19;;;;;;;0.60;0.60;;;;;;;17.15;69.67;100082.19;5090807;28;20206;-79
2023/03/21 10:16:48;;;;;;;0.73;0.73;;;;;;;17.03;70.91;100082.31;5024585;28;20283;-79
2023/03/21 10:19:18;;;;;;;0.90;0.90;;;;;;;17.06;71.40;100079.66;5039693;28;20202;-79
2023/03/21 10:21:49;;;;;;;0.68;0.68;;;;;;;17.23;71.20;100080.31;5090830;28;20213;-79
2023/03/21 10:24:20;;;;;;;1.17;1.17;;;;;;;17.17;70.59;100059.44;5090825;28;20202;-80
2023/03/21 10:26:49;;;;;;;0.80;0.80;;;;;;;17.33;70.53;100071.50;5090747;28;20370;-79
2023/03/21 10:29:17;;;;;;;0.80;0.80;;;;;;;17.48;76.98;100059.91;5047408;28;20207;-77
2023/03/21 10:31:47;;;;;;;0.70;0.70;;;;;;;17.59;89.37;100016.09;5084513;28;20201;-76
2023/03/21 10:34:17;;;;;;;0.60;0.60;;;;;;;18.17;85.09;100068.56;5090383;28;20202;-76
2023/03/21 10:36:45;;;;;;;0.60;0.60;;;;;;;18.26;82.98;100057.88;5090565;28;20201;-79
2023/03/21 10:39:24;;;;;;;1.10;1.10;;;;;;;18.40;69.80;100064.69;5076293;28;20198;-74
2023/03/21 10:41:50;;;;;;;0.60;0.60;;;;;;;17.88;68.87;100052.38;5090561;28;20206;-77
2023/03/21 10:44:19;;;;;;;0.60;0.60;;;;;;;18.28;77.66;100053.50;5090324;28;20213;-77
2023/03/21 10:46:54;;;;;;;1.75;1.55;;;;;;;17.94;69.40;100046.19;5090597;28;20213;-75
2023/03/21 10:49:22;;;;;;;0.80;0.80;;;;;;;17.87;69.26;100027.06;5090234;28;20193;-74
2023/03/21 10:51:52;;;;;;;0.90;0.90;;;;;;;18.14;68.41;100031.00;5090314;28;20206;-74
2023/03/21 10:54:24;;;;;;;0.77;0.77;;;;;;;17.97;69.43;100048.78;5090206;28;20201;-74
2023/03/21 10:56:57;;;;;;;0.90;0.90;;;;;;;17.58;75.09;100051.09;5087562;28;20217;-72
2023/03/21 10:59:26;;;;;;;1.10;1.10;;;;;;;17.46;81.94;100043.34;5079956;28;20713;-72
2023/03/21 11:01:56;;;;;;;0.90;0.90;;;;;;;17.31;76.82;100031.31;5088205;28;20731;-73
2023/03/21 11:04:26;;;;;;;0.60;0.60;;;;;;;17.43;77.20;100030.28;5078803;28;20209;-76
2023/03/21 11:06:55;;;;;;;1.27;1.27;;;;;;;17.03;78.62;100001.13;5090104;28;20229;-74
2023/03/21 11:09:26;;;;;;;0.70;0.70;;;;;;;16.86;83.34;100013.56;5089856;28;20205;-77
2023/03/21 11:11:55;;;;;;;0.63;0.63;;;;;;;16.79;83.90;100009.28;5090149;28;20199;-78
2023/03/21 11:14:31;;;;;;;1.25;1.25;;;;;;;16.72;87.99;100008.47;5090400;28;20213;-78
2023/03/21 11:16:58;;;;;;;0.70;0.70;;;;;;;17.09;91.89;100006.25;5029554;28;20189;-78
2023/03/21 11:19:32;;;;;;;0.80;0.80;;;;;;;17.02;88.52;100007.22;5093904;28;20202;-74
2023/03/21 11:21:59;;;;;;;0.90;0.90;;;;;;;17.08;88.35;100004.56;5093805;28;20700;-76
2023/03/21 11:24:30;;;;;;;0.75;0.75;;;;;;;16.82;89.56;99994.38;5093893;28;20198;-77
2023/03/21 11:26:57;;;;;;;1.65;1.15;;;;;;;16.78;92.66;99976.97;5093728;28;20230;-76
2023/03/21 11:29:30;;;;;;;0.82;0.82;;;;;;;16.60;92.90;99960.59;5093906;28;20237;-77
2023/03/21 11:32:01;;;;;;;1.30;1.30;;;;;;;16.26;93.52;99926.94;5093722;28;20207;-78
2023/03/21 11:34:33;;;;;;;1.38;1.38;;;;;;;16.66;93.29;99960.53;5093562;28;20202;-75